createdAt,value
2019-04-04T00:00:36.812Z,3.00
2019-04-04T00:03:24.889Z,2.87
2019-04-04T00:06:12.669Z,3.07
2019-04-04T00:09:02.645Z,3.10
2019-04-04T00:11:51.133Z,3.30
2019-04-04T00:14:38.931Z,3.20
2019-04-04T00:17:27.021Z,2.87
2019-04-04T00:20:14.609Z,3.17
2019-04-04T00:23:02.181Z,3.30
2019-04-04T00:25:50.010Z,3.37
2019-04-04T00:28:37.989Z,3.40
2019-04-04T00:31:25.937Z,3.27
2019-04-04T00:34:13.799Z,3.40
2019-04-04T00:37:04.448Z,3.50
2019-04-04T00:39:51.085Z,3.50
2019-04-04T00:42:38.918Z,3.37
2019-04-04T00:45:28.629Z,3.43
2019-04-04T00:48:16.399Z,3.53
2019-04-04T00:51:04.174Z,4.20
2019-04-04T00:53:52.206Z,4.00
2019-04-04T00:56:39.806Z,4.43
2019-04-04T00:59:27.648Z,4.60
2019-04-04T01:02:15.589Z,4.77
2019-04-04T01:05:04.212Z,5.23
2019-04-04T01:07:52.130Z,4.97
2019-04-04T01:10:40.047Z,5.50
2019-04-04T01:13:27.996Z,5.30
2019-04-04T01:16:15.650Z,4.87
2019-04-04T01:19:03.383Z,5.30
2019-04-04T01:21:53.050Z,5.97
2019-04-04T01:24:40.867Z,5.00
2019-04-04T01:27:28.713Z,6.00
2019-04-04T01:30:17.290Z,5.37
2019-04-04T01:33:04.955Z,6.00
2019-04-04T01:35:53.951Z,5.30
2019-04-04T01:38:42.665Z,5.40
2019-04-04T01:41:30.500Z,5.33
2019-04-04T01:44:18.179Z,5.80
2019-04-04T01:47:06.218Z,6.50
2019-04-04T01:49:54.205Z,7.03
2019-04-04T01:52:42.069Z,7.60
2019-04-04T01:55:29.837Z,6.50
2019-04-04T01:58:17.894Z,6.93
2019-04-04T02:01:05.981Z,7.40
2019-04-04T02:03:54.226Z,6.23
2019-04-04T02:06:42.280Z,6.47
2019-04-04T02:09:32.042Z,6.93
2019-04-04T02:12:19.577Z,7.10
2019-04-04T02:15:13.954Z,6.97
2019-04-04T02:18:00.382Z,6.67
2019-04-04T02:20:47.886Z,6.53
2019-04-04T02:23:35.831Z,6.93
2019-04-04T02:26:23.681Z,6.67
2019-04-04T02:29:11.751Z,7.27
2019-04-04T02:32:13.058Z,7.40
2019-04-04T02:35:00.869Z,6.90
2019-04-04T02:37:48.764Z,6.90
2019-04-04T02:40:40.781Z,7.57
2019-04-04T02:43:28.283Z,7.20
2019-04-04T02:46:15.230Z,7.17
2019-04-04T02:49:03.246Z,8.10
2019-04-04T02:51:50.949Z,7.67
2019-04-04T02:54:38.902Z,7.60
2019-04-04T02:57:26.658Z,7.33
2019-04-04T03:00:14.798Z,6.70
2019-04-04T03:03:02.519Z,6.50
2019-04-04T03:05:52.027Z,6.57
2019-04-04T03:08:39.693Z,6.40
2019-04-04T03:11:27.517Z,5.40
2019-04-04T03:14:15.424Z,5.63
2019-04-04T03:17:03.158Z,4.77
2019-04-04T03:19:51.156Z,5.40
2019-04-04T03:22:38.802Z,5.30
2019-04-04T03:25:26.631Z,5.07
2019-04-04T03:28:14.429Z,4.60
2019-04-04T03:31:03.619Z,4.40
2019-04-04T03:33:51.738Z,6.07
2019-04-04T03:36:39.697Z,7.20
2019-04-04T03:39:27.228Z,5.67
2019-04-04T03:42:14.837Z,6.33
2019-04-04T03:45:03.020Z,6.90
2019-04-04T03:47:50.898Z,6.50
2019-04-04T03:50:38.666Z,5.43
2019-04-04T03:53:26.671Z,5.90
2019-04-04T03:56:14.582Z,5.97
2019-04-04T03:59:02.433Z,5.40
2019-04-04T04:01:50.374Z,5.37
2019-04-04T04:04:38.009Z,4.60
2019-04-04T04:07:25.679Z,4.40
2019-04-04T04:10:13.496Z,4.47
2019-04-04T04:13:01.173Z,4.90
2019-04-04T04:15:48.898Z,4.87
2019-04-04T04:18:36.892Z,4.90
2019-04-04T04:21:24.609Z,5.47
2019-04-04T04:24:12.287Z,4.37
2019-04-04T04:27:00.211Z,5.33
2019-04-04T04:29:48.268Z,6.00
2019-04-04T04:32:37.410Z,5.40
2019-04-04T04:35:25.497Z,7.50
2019-04-04T04:38:13.394Z,7.10
2019-04-04T04:41:01.125Z,6.33
2019-04-04T04:43:49.153Z,11.13
2019-04-04T04:46:37.076Z,9.73
2019-04-04T04:49:25.002Z,7.80
2019-04-04T04:52:15.066Z,7.27
2019-04-04T04:55:02.245Z,7.27
2019-04-04T04:57:49.895Z,7.97
2019-04-04T05:00:37.725Z,7.20
2019-04-04T05:03:25.278Z,8.80
2019-04-04T05:06:13.281Z,8.77
2019-04-04T05:09:00.962Z,8.20
2019-04-04T05:11:50.330Z,8.13
2019-04-04T05:14:38.620Z,8.60
2019-04-04T05:17:27.145Z,9.07
2019-04-04T05:20:15.097Z,9.03
2019-04-04T05:23:02.960Z,9.67
2019-04-04T05:25:54.115Z,9.53
2019-04-04T05:28:42.098Z,9.83
2019-04-04T05:31:30.416Z,10.50
2019-04-04T05:34:18.033Z,10.53
2019-04-04T05:37:07.380Z,9.87
2019-04-04T05:39:56.026Z,10.13
2019-04-04T05:42:43.772Z,10.20
2019-04-04T05:45:31.591Z,9.20
2019-04-04T05:48:19.401Z,9.27
2019-04-04T05:51:07.203Z,9.63
2019-04-04T05:53:55.637Z,9.60
2019-04-04T05:56:44.695Z,9.93
2019-04-04T05:59:32.969Z,10.70
2019-04-04T06:02:20.795Z,10.60
2019-04-04T06:05:08.642Z,10.67
2019-04-04T06:07:56.493Z,10.83
2019-04-04T06:10:44.096Z,11.30
2019-04-04T06:13:31.873Z,11.83
2019-04-04T06:16:19.527Z,11.90
2019-04-04T06:19:07.529Z,12.20
2019-04-04T06:21:55.168Z,12.23
2019-04-04T06:24:43.088Z,12.47
2019-04-04T06:27:30.961Z,12.80
2019-04-04T06:30:20.160Z,12.30
2019-04-04T06:33:08.689Z,13.03
2019-04-04T06:35:56.664Z,13.83
2019-04-04T06:38:44.346Z,14.67
2019-04-04T06:41:32.399Z,15.80
2019-04-04T06:44:20.577Z,15.53
2019-04-04T06:47:08.218Z,14.67
2019-04-04T06:49:56.197Z,16.30
2019-04-04T06:52:44.595Z,15.93
2019-04-04T06:55:32.262Z,15.00
2019-04-04T06:58:20.139Z,16.00
2019-04-04T07:01:10.916Z,16.07
2019-04-04T07:03:59.494Z,16.40
2019-04-04T07:06:47.839Z,16.80
2019-04-04T07:09:37.221Z,17.03
2019-04-04T07:12:28.373Z,17.47
2019-04-04T07:15:16.045Z,19.77
2019-04-04T07:18:04.316Z,17.13
2019-04-04T07:20:52.003Z,18.27
2019-04-04T07:23:42.093Z,18.33
2019-04-04T07:26:29.935Z,17.43
2019-04-04T07:29:17.986Z,17.63
2019-04-04T07:32:07.194Z,17.67
2019-04-04T07:34:55.947Z,18.27
2019-04-04T07:37:43.469Z,17.23
2019-04-04T07:40:31.437Z,18.37
2019-04-04T07:43:19.961Z,19.80
2019-04-04T07:46:16.268Z,18.97
2019-04-04T07:48:57.923Z,19.17
2019-04-04T07:51:45.820Z,18.97
2019-04-04T07:54:33.858Z,17.97
2019-04-04T07:57:21.860Z,18.07
2019-04-04T08:00:09.934Z,20.10
2019-04-04T08:02:57.741Z,19.40
2019-04-04T08:05:45.464Z,20.33
2019-04-04T08:08:33.333Z,21.73
2019-04-04T08:11:21.061Z,18.37
2019-04-04T08:14:08.854Z,19.20
2019-04-04T08:16:56.597Z,18.57
2019-04-04T08:19:44.681Z,18.53
2019-04-04T08:22:32.544Z,19.73
2019-04-04T08:25:20.138Z,18.83
2019-04-04T08:28:07.917Z,16.93
2019-04-04T08:30:55.844Z,16.40
2019-04-04T08:33:44.247Z,16.23
2019-04-04T08:36:32.000Z,16.37
2019-04-04T08:39:19.956Z,16.47
2019-04-04T08:42:07.865Z,17.60
2019-04-04T08:44:55.425Z,17.00
2019-04-04T08:47:43.046Z,16.60
2019-04-04T08:50:30.925Z,15.50
2019-04-04T08:53:18.605Z,16.10
2019-04-04T08:56:06.167Z,17.00
2019-04-04T08:58:53.792Z,16.33
2019-04-04T09:01:41.258Z,16.07
2019-04-04T09:04:29.438Z,16.80
2019-04-04T09:07:17.095Z,15.87
2019-04-04T09:10:07.762Z,16.70
2019-04-04T09:12:55.617Z,16.60
2019-04-04T09:15:43.549Z,16.40
2019-04-04T09:18:31.703Z,16.13
2019-04-04T09:21:19.365Z,16.40
2019-04-04T09:24:06.964Z,15.33
2019-04-04T09:26:54.814Z,14.30
2019-04-04T09:29:42.568Z,14.13
2019-04-04T09:32:30.358Z,14.73
2019-04-04T09:35:18.190Z,13.23
2019-04-04T09:38:06.100Z,13.70
2019-04-04T09:40:53.600Z,14.07
2019-04-04T09:43:41.346Z,11.27
2019-04-04T09:46:29.678Z,11.23
2019-04-04T09:49:17.835Z,11.03
2019-04-04T09:52:05.965Z,11.17
2019-04-04T09:54:53.890Z,11.03
2019-04-04T09:57:43.777Z,11.87
2019-04-04T10:00:31.577Z,10.80
2019-04-04T10:03:19.738Z,11.60
2019-04-04T10:06:07.744Z,11.20
2019-04-04T10:08:55.397Z,9.93
2019-04-04T10:11:43.246Z,8.90
2019-04-04T10:14:32.656Z,8.43
2019-04-04T10:17:22.730Z,8.13
2019-04-04T10:20:12.565Z,7.63
2019-04-04T10:23:00.466Z,8.30
2019-04-04T10:25:48.576Z,7.70
2019-04-04T10:28:36.347Z,7.23
2019-04-04T10:31:23.834Z,6.47
2019-04-04T10:34:11.509Z,7.17
2019-04-04T10:36:59.170Z,7.97
2019-04-04T10:39:47.906Z,7.60
2019-04-04T10:42:35.825Z,7.47
2019-04-04T10:45:23.642Z,6.90
2019-04-04T10:48:11.536Z,6.57
2019-04-04T10:50:59.743Z,7.93
2019-04-04T10:53:47.485Z,7.10
2019-04-04T10:56:34.997Z,7.27
2019-04-04T10:59:22.665Z,7.87
2019-04-04T11:02:10.629Z,7.57
2019-04-04T11:04:58.537Z,8.90
2019-04-04T11:07:46.414Z,8.43
2019-04-04T11:10:34.250Z,9.27
2019-04-04T11:13:33.013Z,8.83
2019-04-04T11:16:11.445Z,8.20
2019-04-04T11:18:59.452Z,8.27
2019-04-04T11:21:47.330Z,7.53
2019-04-04T11:24:35.174Z,7.60
2019-04-04T11:27:22.983Z,6.60
2019-04-04T11:30:10.955Z,4.90
2019-04-04T11:32:58.649Z,5.30
2019-04-04T11:35:46.590Z,5.90
2019-04-04T11:38:34.207Z,6.10
2019-04-04T11:41:22.208Z,7.13
2019-04-04T11:44:09.871Z,5.73
2019-04-04T11:46:57.823Z,4.70
2019-04-04T11:49:45.718Z,4.70
2019-04-04T11:52:33.751Z,3.90
2019-04-04T11:55:21.697Z,4.00
2019-04-04T11:58:09.822Z,3.53
2019-04-04T12:00:59.169Z,3.67
2019-04-04T12:03:47.175Z,3.60
2019-04-04T12:06:35.118Z,2.83
2019-04-04T12:09:31.810Z,3.10
2019-04-04T12:12:23.630Z,4.00
2019-04-04T12:15:12.107Z,3.40
2019-04-04T12:18:02.325Z,3.20
2019-04-04T12:20:50.129Z,3.13
2019-04-04T12:23:37.715Z,4.40
2019-04-04T12:26:25.622Z,3.20
2019-04-04T12:29:13.368Z,3.40
2019-04-04T12:32:01.233Z,2.80
2019-04-04T12:34:49.010Z,2.80
2019-04-04T12:37:37.009Z,2.70
2019-04-04T12:40:25.059Z,3.03
2019-04-04T12:43:17.194Z,2.60
2019-04-04T12:46:05.270Z,2.30
2019-04-04T12:48:52.765Z,2.30
2019-04-04T12:51:40.413Z,2.10
2019-04-04T12:54:28.162Z,2.70
2019-04-04T12:57:15.942Z,2.10
2019-04-04T13:00:06.285Z,2.10
2019-04-04T13:02:53.904Z,2.30
2019-04-04T13:05:42.074Z,2.50
2019-04-04T13:08:30.648Z,2.27
2019-04-04T13:11:18.708Z,2.30
2019-04-04T13:14:06.692Z,2.63
2019-04-04T13:16:54.358Z,2.20
2019-04-04T13:19:42.405Z,2.10
2019-04-04T13:22:30.345Z,2.27
2019-04-04T13:25:18.067Z,2.23
2019-04-04T13:28:05.750Z,2.20
2019-04-04T13:30:53.788Z,2.23
2019-04-04T13:33:41.338Z,2.40
2019-04-04T13:36:29.230Z,2.17
2019-04-04T13:39:16.884Z,2.23
2019-04-04T13:42:05.566Z,2.47
2019-04-04T13:44:53.568Z,2.60
2019-04-04T13:47:41.187Z,2.20
2019-04-04T13:50:29.123Z,2.30
2019-04-04T13:53:17.041Z,8.67
2019-04-04T13:56:04.825Z,2.50
2019-04-04T13:58:53.161Z,2.03
2019-04-04T14:01:42.793Z,1.70
2019-04-04T14:04:30.365Z,1.57
2019-04-04T14:07:17.950Z,1.50
2019-04-04T14:10:07.453Z,1.60
2019-04-04T14:12:55.108Z,1.43
2019-04-04T14:15:42.881Z,1.87
2019-04-04T14:18:39.532Z,2.13
2019-04-04T14:21:20.094Z,1.40
2019-04-04T14:24:13.814Z,1.90
2019-04-04T14:26:58.109Z,1.90
2019-04-04T14:29:46.090Z,2.27
2019-04-04T14:32:34.112Z,2.30
2019-04-04T14:35:21.960Z,1.60
2019-04-04T14:38:09.580Z,1.80
2019-04-04T14:41:10.257Z,1.80
2019-04-04T14:43:48.282Z,1.60
2019-04-04T14:46:37.105Z,1.80
2019-04-04T14:49:25.878Z,1.80
2019-04-04T14:52:13.816Z,1.70
2019-04-04T14:55:01.620Z,1.90
2019-04-04T14:57:49.510Z,1.90
2019-04-04T15:00:37.412Z,1.90
2019-04-04T15:03:25.322Z,1.90
2019-04-04T15:06:13.048Z,2.00
2019-04-04T15:09:00.668Z,2.20
2019-04-04T15:11:48.412Z,2.00
2019-04-04T15:14:35.889Z,2.40
2019-04-04T15:17:23.945Z,2.07
2019-04-04T15:20:12.171Z,1.93
2019-04-04T15:23:00.177Z,1.80
2019-04-04T15:25:49.336Z,2.00
2019-04-04T15:28:37.543Z,1.90
2019-04-04T15:31:25.534Z,1.67
2019-04-04T15:34:13.264Z,11.47
2019-04-04T15:37:02.753Z,19.37
2019-04-04T15:39:50.764Z,14.50
2019-04-04T15:42:38.829Z,2.27
2019-04-04T15:45:29.290Z,2.13
2019-04-04T15:48:17.314Z,2.60
2019-04-04T15:51:05.106Z,2.40
2019-04-04T15:53:52.885Z,2.30
2019-04-04T15:56:43.534Z,2.27
2019-04-04T15:59:32.269Z,2.93
2019-04-04T16:02:20.514Z,2.90
2019-04-04T16:05:08.504Z,1.63
2019-04-04T16:07:58.609Z,1.67
2019-04-04T16:10:46.657Z,1.40
2019-04-04T16:13:34.510Z,1.23
2019-04-04T16:16:23.698Z,1.20
2019-04-04T16:19:11.508Z,1.07
2019-04-04T16:21:59.621Z,8.77
2019-04-04T16:24:47.542Z,1.87
2019-04-04T16:27:35.565Z,1.20
2019-04-04T16:30:23.080Z,1.50
2019-04-04T16:33:10.940Z,0.93
2019-04-04T16:35:58.811Z,1.00
2019-04-04T16:38:46.670Z,1.90
2019-04-04T16:41:34.577Z,1.40
2019-04-04T16:44:22.222Z,2.37
2019-04-04T16:47:17.259Z,1.23
2019-04-04T16:50:06.797Z,1.10
2019-04-04T16:52:54.366Z,1.50
2019-04-04T16:55:42.277Z,1.20
2019-04-04T16:58:29.909Z,1.40
2019-04-04T17:01:18.096Z,3.73
2019-04-04T17:04:05.622Z,1.67
2019-04-04T17:06:54.859Z,2.90
2019-04-04T17:09:42.933Z,1.67
2019-04-04T17:12:30.820Z,1.60
2019-04-04T17:15:20.481Z,1.60
2019-04-04T17:18:08.036Z,1.60
2019-04-04T17:20:55.813Z,1.77
2019-04-04T17:23:43.376Z,4.90
2019-04-04T17:26:31.249Z,5.37
2019-04-04T17:29:19.269Z,5.87
2019-04-04T17:32:07.509Z,3.97
2019-04-04T17:34:55.840Z,3.03
2019-04-04T17:37:43.825Z,3.00
2019-04-04T17:40:31.681Z,3.10
2019-04-04T17:43:19.807Z,3.00
2019-04-04T17:46:08.064Z,3.10
2019-04-04T17:48:55.584Z,2.50
2019-04-04T17:51:44.389Z,3.20
2019-04-04T17:54:32.404Z,2.53
2019-04-04T17:57:20.078Z,3.20
2019-04-04T18:00:09.851Z,2.90
2019-04-04T18:02:57.696Z,3.20
2019-04-04T18:05:45.624Z,3.40
2019-04-04T18:08:33.531Z,3.70
2019-04-04T18:11:21.556Z,4.10
2019-04-04T18:14:09.208Z,3.80
2019-04-04T18:16:56.956Z,3.87
2019-04-04T18:19:44.917Z,4.43
2019-04-04T18:22:32.879Z,3.80
2019-04-04T18:25:20.434Z,4.33
2019-04-04T18:28:08.223Z,4.53
2019-04-04T18:30:55.862Z,4.20
2019-04-04T18:33:43.989Z,4.60
2019-04-04T18:36:32.129Z,4.27
2019-04-04T18:39:19.826Z,4.63
2019-04-04T18:42:07.467Z,4.67
2019-04-04T18:44:55.553Z,4.33
2019-04-04T18:47:43.163Z,4.30
2019-04-04T18:50:30.886Z,4.20
2019-04-04T18:53:18.578Z,3.90
2019-04-04T18:56:06.649Z,4.43
2019-04-04T18:58:56.036Z,4.00
2019-04-04T19:01:43.594Z,4.60
2019-04-04T19:04:31.221Z,14.30
2019-04-04T19:07:19.155Z,6.93
2019-04-04T19:10:08.796Z,11.57
2019-04-04T19:13:05.284Z,6.40
2019-04-04T19:15:46.662Z,5.43
2019-04-04T19:18:34.654Z,5.50
2019-04-04T19:21:22.302Z,8.37
2019-04-04T19:24:10.055Z,5.97
2019-04-04T19:26:57.664Z,6.80
2019-04-04T19:29:45.769Z,6.60
2019-04-04T19:32:33.645Z,7.70
2019-04-04T19:35:21.273Z,7.97
2019-04-04T19:38:08.937Z,6.90
2019-04-04T19:40:56.882Z,7.70
2019-04-04T19:43:44.606Z,7.07
2019-04-04T19:46:37.241Z,7.67
2019-04-04T19:49:22.262Z,11.17
2019-04-04T19:52:09.922Z,8.43
2019-04-04T19:54:58.174Z,8.70
2019-04-04T19:57:45.645Z,9.87
2019-04-04T20:00:33.661Z,8.20
2019-04-04T20:03:21.337Z,8.80
2019-04-04T20:06:08.941Z,8.73
2019-04-04T20:08:56.733Z,8.90
2019-04-04T20:11:44.508Z,8.67
2019-04-04T20:14:32.182Z,8.57
2019-04-04T20:17:20.201Z,9.37
2019-04-04T20:20:08.996Z,8.30
2019-04-04T20:22:57.117Z,9.27
2019-04-04T20:25:45.105Z,8.50
2019-04-04T20:28:32.934Z,9.23
2019-04-04T20:31:20.622Z,9.57
2019-04-04T20:34:08.611Z,9.77
2019-04-04T20:36:56.629Z,9.37
2019-04-04T20:39:44.593Z,9.50
2019-04-04T20:42:32.187Z,9.77
2019-04-04T20:45:20.101Z,9.67
2019-04-04T20:48:08.169Z,9.30
2019-04-04T20:50:55.913Z,9.13
2019-04-04T20:53:43.770Z,9.03
2019-04-04T20:56:31.457Z,10.00
2019-04-04T20:59:19.499Z,8.73
2019-04-04T21:02:07.329Z,9.70
2019-04-04T21:04:55.042Z,9.50
2019-04-04T21:07:43.034Z,9.07
2019-04-04T21:10:30.868Z,9.37
2019-04-04T21:13:19.660Z,8.90
2019-04-04T21:16:08.345Z,9.63
2019-04-04T21:18:56.085Z,11.47
2019-04-04T21:21:43.828Z,10.33
2019-04-04T21:24:31.669Z,8.37
2019-04-04T21:27:19.267Z,9.83
2019-04-04T21:30:07.655Z,10.63
2019-04-04T21:32:56.438Z,10.00
2019-04-04T21:35:44.283Z,9.30
2019-04-04T21:38:32.226Z,9.80
2019-04-04T21:41:20.001Z,8.73
2019-04-04T21:44:09.190Z,9.53
2019-04-04T21:46:57.642Z,10.37
2019-04-04T21:49:45.273Z,10.10
2019-04-04T21:52:33.322Z,10.57
2019-04-04T21:55:21.045Z,9.33
2019-04-04T21:58:09.005Z,10.07
2019-04-04T22:00:57.610Z,10.53
2019-04-04T22:03:45.305Z,9.87
2019-04-04T22:06:33.310Z,10.33
2019-04-04T22:09:21.129Z,11.00
2019-04-04T22:12:08.658Z,10.70
2019-04-04T22:14:56.636Z,10.23
2019-04-04T22:17:44.310Z,10.50
2019-04-04T22:20:32.419Z,10.47
2019-04-04T22:23:20.077Z,11.00
2019-04-04T22:26:07.637Z,10.77
2019-04-04T22:28:55.423Z,10.73
2019-04-04T22:31:43.485Z,11.67
2019-04-04T22:34:31.086Z,11.10
2019-04-04T22:37:18.882Z,11.07
2019-04-04T22:40:07.499Z,11.17
2019-04-04T22:42:55.160Z,11.53
2019-04-04T22:45:42.717Z,10.60
2019-04-04T22:48:30.653Z,11.00
2019-04-04T22:51:18.576Z,10.63
2019-04-04T22:54:06.521Z,10.37
2019-04-04T22:56:54.106Z,11.17
2019-04-04T22:59:42.037Z,11.67
2019-04-04T23:02:29.928Z,10.83
2019-04-04T23:05:17.569Z,10.30
2019-04-04T23:08:07.467Z,11.10
2019-04-04T23:10:54.709Z,11.33
2019-04-04T23:13:42.402Z,11.67
2019-04-04T23:16:30.217Z,11.47
2019-04-04T23:19:17.998Z,12.10
2019-04-04T23:22:05.903Z,12.77
2019-04-04T23:24:53.733Z,11.83
2019-04-04T23:27:41.400Z,12.03
2019-04-04T23:30:29.201Z,12.60
2019-04-04T23:33:17.154Z,11.90
2019-04-04T23:36:05.014Z,11.53
2019-04-04T23:38:52.710Z,13.17
2019-04-04T23:41:40.265Z,12.50
2019-04-04T23:44:28.300Z,11.30
2019-04-04T23:47:16.405Z,12.47
2019-04-04T23:50:05.689Z,10.70
2019-04-04T23:52:53.302Z,11.33
2019-04-04T23:55:41.111Z,12.83
2019-04-04T23:58:29.082Z,11.40
